sensor_id;sensor_type;location;lat;lon;timestamp;P1;durP1;ratioP1;P2;durP2;ratioP2
17595;SDS011;8916;47.086;15.920;2022-07-21T00:02:20;7.93;;;4.82;;
17595;SDS011;8916;47.086;15.920;2022-07-21T00:04:49;9.05;;;4.28;;
17595;SDS011;8916;47.086;15.920;2022-07-21T00:07:19;6.05;;;4.60;;
17595;SDS011;8916;47.086;15.920;2022-07-21T00:09:48;8.70;;;4.45;;
17595;SDS011;8916;47.086;15.920;2022-07-21T00:12:19;6.55;;;4.28;;
17595;SDS011;8916;47.086;15.920;2022-07-21T00:14:48;6.10;;;4.55;;
17595;SDS011;8916;47.086;15.920;2022-07-21T00:17:17;6.40;;;4.63;;
17595;SDS011;8916;47.086;15.920;2022-07-21T00:19:46;8.00;;;4.78;;
17595;SDS011;8916;47.086;15.920;2022-07-21T00:22:15;6.97;;;4.13;;
17595;SDS011;8916;47.086;15.920;2022-07-21T00:24:45;6.70;;;4.20;;
17595;SDS011;8916;47.086;15.920;2022-07-21T00:27:14;8.93;;;4.38;;
17595;SDS011;8916;47.086;15.920;2022-07-21T00:29:44;6.55;;;4.28;;
17595;SDS011;8916;47.086;15.920;2022-07-21T00:32:13;5.55;;;4.60;;
17595;SDS011;8916;47.086;15.920;2022-07-21T00:34:42;6.75;;;5.00;;
17595;SDS011;8916;47.086;15.920;2022-07-21T00:37:12;7.78;;;5.30;;
17595;SDS011;8916;47.086;15.920;2022-07-21T00:39:41;9.55;;;5.18;;
17595;SDS011;8916;47.086;15.920;2022-07-21T00:42:19;8.68;;;5.20;;
17595;SDS011;8916;47.086;15.920;2022-07-21T00:44:51;6.38;;;5.45;;
17595;SDS011;8916;47.086;15.920;2022-07-21T00:47:20;8.43;;;5.25;;
17595;SDS011;8916;47.086;15.920;2022-07-21T00:49:51;8.80;;;5.75;;
17595;SDS011;8916;47.086;15.920;2022-07-21T00:52:20;7.28;;;5.85;;
17595;SDS011;8916;47.086;15.920;2022-07-21T00:54:49;7.15;;;5.85;;
17595;SDS011;8916;47.086;15.920;2022-07-21T00:57:19;7.78;;;5.68;;
17595;SDS011;8916;47.086;15.920;2022-07-21T00:59:49;9.70;;;5.47;;
17595;SDS011;8916;47.086;15.920;2022-07-21T01:02:20;11.35;;;5.38;;
17595;SDS011;8916;47.086;15.920;2022-07-21T01:04:50;11.27;;;5.60;;
17595;SDS011;8916;47.086;15.920;2022-07-21T01:07:19;9.60;;;5.50;;
17595;SDS011;8916;47.086;15.920;2022-07-21T01:09:49;8.35;;;5.43;;
17595;SDS011;8916;47.086;15.920;2022-07-21T01:12:18;7.70;;;5.30;;
17595;SDS011;8916;47.086;15.920;2022-07-21T01:14:47;6.72;;;5.20;;
17595;SDS011;8916;47.086;15.920;2022-07-21T01:17:17;7.10;;;5.20;;
17595;SDS011;8916;47.086;15.920;2022-07-21T01:19:47;7.40;;;4.60;;
17595;SDS011;8916;47.086;15.920;2022-07-21T01:22:18;7.45;;;5.20;;
17595;SDS011;8916;47.086;15.920;2022-07-21T01:24:48;6.82;;;5.28;;
17595;SDS011;8916;47.086;15.920;2022-07-21T01:27:17;7.05;;;5.15;;
17595;SDS011;8916;47.086;15.920;2022-07-21T01:29:46;6.82;;;4.90;;
17595;SDS011;8916;47.086;15.920;2022-07-21T01:32:15;6.95;;;4.35;;
17595;SDS011;8916;47.086;15.920;2022-07-21T01:34:44;7.00;;;5.20;;
17595;SDS011;8916;47.086;15.920;2022-07-21T01:37:14;9.52;;;5.22;;
17595;SDS011;8916;47.086;15.920;2022-07-21T01:39:45;5.72;;;5.00;;
17595;SDS011;8916;47.086;15.920;2022-07-21T01:42:32;7.63;;;4.88;;
17595;SDS011;8916;47.086;15.920;2022-07-21T01:45:01;7.13;;;4.97;;
17595;SDS011;8916;47.086;15.920;2022-07-21T01:47:30;7.43;;;5.43;;
17595;SDS011;8916;47.086;15.920;2022-07-21T01:49:59;11.20;;;5.15;;
17595;SDS011;8916;47.086;15.920;2022-07-21T01:52:29;6.25;;;4.47;;
17595;SDS011;8916;47.086;15.920;2022-07-21T01:55:00;6.45;;;5.55;;
17595;SDS011;8916;47.086;15.920;2022-07-21T01:57:29;8.45;;;5.97;;
17595;SDS011;8916;47.086;15.920;2022-07-21T01:59:58;9.70;;;5.20;;
17595;SDS011;8916;47.086;15.920;2022-07-21T02:02:32;10.25;;;6.20;;
17595;SDS011;8916;47.086;15.920;2022-07-21T02:05:02;10.20;;;6.32;;
17595;SDS011;8916;47.086;15.920;2022-07-21T02:07:31;10.88;;;6.00;;
17595;SDS011;8916;47.086;15.920;2022-07-21T02:10:02;7.93;;;5.65;;
17595;SDS011;8916;47.086;15.920;2022-07-21T02:12:32;8.60;;;5.60;;
17595;SDS011;8916;47.086;15.920;2022-07-21T02:15:01;11.18;;;6.13;;
17595;SDS011;8916;47.086;15.920;2022-07-21T02:17:30;9.95;;;5.95;;
17595;SDS011;8916;47.086;15.920;2022-07-21T02:19:59;9.65;;;5.55;;
17595;SDS011;8916;47.086;15.920;2022-07-21T02:22:28;6.93;;;4.90;;
17595;SDS011;8916;47.086;15.920;2022-07-21T02:24:58;7.28;;;5.32;;
17595;SDS011;8916;47.086;15.920;2022-07-21T02:27:28;9.88;;;4.90;;
17595;SDS011;8916;47.086;15.920;2022-07-21T02:29:57;6.82;;;5.03;;
17595;SDS011;8916;47.086;15.920;2022-07-21T02:32:26;7.47;;;5.28;;
17595;SDS011;8916;47.086;15.920;2022-07-21T02:34:55;5.97;;;4.47;;
17595;SDS011;8916;47.086;15.920;2022-07-21T02:37:25;7.18;;;4.97;;
17595;SDS011;8916;47.086;15.920;2022-07-21T02:39:55;6.95;;;5.15;;
17595;SDS011;8916;47.086;15.920;2022-07-21T02:42:25;12.30;;;5.25;;
17595;SDS011;8916;47.086;15.920;2022-07-21T02:44:55;6.80;;;5.22;;
17595;SDS011;8916;47.086;15.920;2022-07-21T02:47:24;9.63;;;5.68;;
17595;SDS011;8916;47.086;15.920;2022-07-21T02:49:53;14.23;;;5.75;;
17595;SDS011;8916;47.086;15.920;2022-07-21T02:52:23;10.73;;;5.30;;
17595;SDS011;8916;47.086;15.920;2022-07-21T02:54:53;8.63;;;5.00;;
17595;SDS011;8916;47.086;15.920;2022-07-21T02:57:22;7.22;;;5.20;;
17595;SDS011;8916;47.086;15.920;2022-07-21T02:59:51;13.50;;;5.80;;
17595;SDS011;8916;47.086;15.920;2022-07-21T03:02:21;8.02;;;6.18;;
17595;SDS011;8916;47.086;15.920;2022-07-21T03:04:50;11.85;;;5.85;;
17595;SDS011;8916;47.086;15.920;2022-07-21T03:07:19;9.18;;;5.95;;
17595;SDS011;8916;47.086;15.920;2022-07-21T03:09:48;7.60;;;5.80;;
17595;SDS011;8916;47.086;15.920;2022-07-21T03:12:17;10.68;;;5.57;;
17595;SDS011;8916;47.086;15.920;2022-07-21T03:14:47;10.40;;;6.07;;
17595;SDS011;8916;47.086;15.920;2022-07-21T03:17:16;9.75;;;5.85;;
17595;SDS011;8916;47.086;15.920;2022-07-21T03:19:46;10.55;;;6.30;;
17595;SDS011;8916;47.086;15.920;2022-07-21T03:22:15;17.35;;;7.10;;
17595;SDS011;8916;47.086;15.920;2022-07-21T03:24:47;12.63;;;7.25;;
17595;SDS011;8916;47.086;15.920;2022-07-21T03:27:18;8.02;;;6.25;;
17595;SDS011;8916;47.086;15.920;2022-07-21T03:29:47;11.70;;;6.10;;
17595;SDS011;8916;47.086;15.920;2022-07-21T03:32:16;9.35;;;6.30;;
17595;SDS011;8916;47.086;15.920;2022-07-21T03:34:47;10.48;;;6.38;;
17595;SDS011;8916;47.086;15.920;2022-07-21T03:37:16;10.98;;;6.55;;
17595;SDS011;8916;47.086;15.920;2022-07-21T03:39:45;12.32;;;6.10;;
17595;SDS011;8916;47.086;15.920;2022-07-21T03:42:17;8.38;;;6.22;;
17595;SDS011;8916;47.086;15.920;2022-07-21T03:44:47;13.88;;;5.88;;
17595;SDS011;8916;47.086;15.920;2022-07-21T03:47:16;11.32;;;5.97;;
17595;SDS011;8916;47.086;15.920;2022-07-21T03:49:46;8.65;;;6.25;;
17595;SDS011;8916;47.086;15.920;2022-07-21T03:52:15;9.82;;;7.10;;
17595;SDS011;8916;47.086;15.920;2022-07-21T03:54:44;10.52;;;6.18;;
17595;SDS011;8916;47.086;15.920;2022-07-21T03:57:13;12.95;;;6.45;;
17595;SDS011;8916;47.086;15.920;2022-07-21T03:59:43;11.70;;;5.95;;
17595;SDS011;8916;47.086;15.920;2022-07-21T04:02:24;9.65;;;6.22;;
17595;SDS011;8916;47.086;15.920;2022-07-21T04:04:54;9.40;;;6.50;;
17595;SDS011;8916;47.086;15.920;2022-07-21T04:07:23;8.65;;;6.50;;
17595;SDS011;8916;47.086;15.920;2022-07-21T04:09:53;9.43;;;5.85;;
17595;SDS011;8916;47.086;15.920;2022-07-21T04:12:24;8.63;;;5.88;;
17595;SDS011;8916;47.086;15.920;2022-07-21T04:14:54;7.75;;;5.90;;
17595;SDS011;8916;47.086;15.920;2022-07-21T04:17:24;10.15;;;6.13;;
17595;SDS011;8916;47.086;15.920;2022-07-21T04:19:54;7.22;;;5.70;;
17595;SDS011;8916;47.086;15.920;2022-07-21T04:22:24;8.05;;;5.80;;
17595;SDS011;8916;47.086;15.920;2022-07-21T04:24:53;8.18;;;6.20;;
17595;SDS011;8916;47.086;15.920;2022-07-21T04:27:22;8.57;;;5.60;;
17595;SDS011;8916;47.086;15.920;2022-07-21T04:29:52;9.48;;;5.95;;
17595;SDS011;8916;47.086;15.920;2022-07-21T04:32:21;10.13;;;5.70;;
17595;SDS011;8916;47.086;15.920;2022-07-21T04:34:50;7.97;;;5.53;;
17595;SDS011;8916;47.086;15.920;2022-07-21T04:37:21;10.02;;;5.82;;
17595;SDS011;8916;47.086;15.920;2022-07-21T04:39:50;16.70;;;6.40;;
17595;SDS011;8916;47.086;15.920;2022-07-21T04:42:21;10.25;;;6.25;;
17595;SDS011;8916;47.086;15.920;2022-07-21T04:44:50;7.28;;;5.60;;
17595;SDS011;8916;47.086;15.920;2022-07-21T04:47:19;9.48;;;6.07;;
17595;SDS011;8916;47.086;15.920;2022-07-21T04:49:49;9.70;;;6.25;;
17595;SDS011;8916;47.086;15.920;2022-07-21T04:52:18;8.85;;;6.18;;
17595;SDS011;8916;47.086;15.920;2022-07-21T04:54:50;9.90;;;6.55;;
17595;SDS011;8916;47.086;15.920;2022-07-21T04:57:19;12.98;;;6.38;;
17595;SDS011;8916;47.086;15.920;2022-07-21T04:59:48;10.07;;;5.53;;
17595;SDS011;8916;47.086;15.920;2022-07-21T05:02:18;9.60;;;6.32;;
17595;SDS011;8916;47.086;15.920;2022-07-21T05:04:47;10.30;;;5.82;;
17595;SDS011;8916;47.086;15.920;2022-07-21T05:07:16;10.57;;;6.15;;
17595;SDS011;8916;47.086;15.920;2022-07-21T05:09:47;12.18;;;6.28;;
17595;SDS011;8916;47.086;15.920;2022-07-21T05:12:16;8.63;;;6.15;;
17595;SDS011;8916;47.086;15.920;2022-07-21T05:14:45;9.57;;;5.93;;
17595;SDS011;8916;47.086;15.920;2022-07-21T05:17:15;10.63;;;6.53;;
17595;SDS011;8916;47.086;15.920;2022-07-21T05:19:44;7.85;;;5.57;;
17595;SDS011;8916;47.086;15.920;2022-07-21T05:22:25;10.98;;;5.95;;
17595;SDS011;8916;47.086;15.920;2022-07-21T05:24:56;7.50;;;5.80;;
17595;SDS011;8916;47.086;15.920;2022-07-21T05:27:27;10.48;;;5.95;;
17595;SDS011;8916;47.086;15.920;2022-07-21T05:29:57;9.75;;;6.03;;
17595;SDS011;8916;47.086;15.920;2022-07-21T05:32:28;11.63;;;6.07;;
17595;SDS011;8916;47.086;15.920;2022-07-21T05:34:57;8.95;;;5.53;;
17595;SDS011;8916;47.086;15.920;2022-07-21T05:37:27;12.95;;;5.70;;
17595;SDS011;8916;47.086;15.920;2022-07-21T05:39:57;13.05;;;5.50;;
17595;SDS011;8916;47.086;15.920;2022-07-21T05:42:30;11.77;;;5.35;;
17595;SDS011;8916;47.086;15.920;2022-07-21T05:44:59;8.35;;;5.30;;
17595;SDS011;8916;47.086;15.920;2022-07-21T05:47:29;8.63;;;5.60;;
17595;SDS011;8916;47.086;15.920;2022-07-21T05:49:58;16.33;;;5.18;;
17595;SDS011;8916;47.086;15.920;2022-07-21T05:52:28;7.60;;;4.80;;
17595;SDS011;8916;47.086;15.920;2022-07-21T05:54:58;10.65;;;4.90;;
17595;SDS011;8916;47.086;15.920;2022-07-21T05:57:28;5.43;;;4.20;;
17595;SDS011;8916;47.086;15.920;2022-07-21T05:59:57;10.50;;;4.43;;
17595;SDS011;8916;47.086;15.920;2022-07-21T06:02:26;8.05;;;4.40;;
17595;SDS011;8916;47.086;15.920;2022-07-21T06:04:57;8.35;;;4.40;;
17595;SDS011;8916;47.086;15.920;2022-07-21T06:07:28;8.65;;;4.40;;
17595;SDS011;8916;47.086;15.920;2022-07-21T06:09:58;8.90;;;4.00;;
17595;SDS011;8916;47.086;15.920;2022-07-21T06:12:28;7.55;;;4.30;;
17595;SDS011;8916;47.086;15.920;2022-07-21T06:14:59;6.93;;;3.85;;
17595;SDS011;8916;47.086;15.920;2022-07-21T06:17:28;9.68;;;3.75;;
17595;SDS011;8916;47.086;15.920;2022-07-21T06:19:59;8.18;;;3.80;;
17595;SDS011;8916;47.086;15.920;2022-07-21T06:22:28;6.60;;;3.55;;
17595;SDS011;8916;47.086;15.920;2022-07-21T06:24:59;7.22;;;4.18;;
17595;SDS011;8916;47.086;15.920;2022-07-21T06:27:28;7.03;;;3.85;;
17595;SDS011;8916;47.086;15.920;2022-07-21T06:29:59;9.63;;;4.07;;
17595;SDS011;8916;47.086;15.920;2022-07-21T06:32:28;10.63;;;4.03;;
17595;SDS011;8916;47.086;15.920;2022-07-21T06:34:57;7.35;;;3.88;;
17595;SDS011;8916;47.086;15.920;2022-07-21T06:37:26;6.15;;;3.80;;
17595;SDS011;8916;47.086;15.920;2022-07-21T06:39:55;4.68;;;3.67;;
17595;SDS011;8916;47.086;15.920;2022-07-21T06:42:26;6.43;;;3.70;;
17595;SDS011;8916;47.086;15.920;2022-07-21T06:44:55;6.95;;;3.70;;
17595;SDS011;8916;47.086;15.920;2022-07-21T06:47:26;8.88;;;4.15;;
17595;SDS011;8916;47.086;15.920;2022-07-21T06:49:56;10.10;;;3.65;;
17595;SDS011;8916;47.086;15.920;2022-07-21T06:52:32;5.65;;;3.85;;
17595;SDS011;8916;47.086;15.920;2022-07-21T06:55:02;10.00;;;3.92;;
17595;SDS011;8916;47.086;15.920;2022-07-21T06:57:34;10.73;;;3.63;;
17595;SDS011;8916;47.086;15.920;2022-07-21T07:00:05;7.18;;;4.20;;
17595;SDS011;8916;47.086;15.920;2022-07-21T07:02:35;5.85;;;3.80;;
17595;SDS011;8916;47.086;15.920;2022-07-21T07:05:05;12.13;;;3.70;;
17595;SDS011;8916;47.086;15.920;2022-07-21T07:07:35;9.30;;;3.90;;
17595;SDS011;8916;47.086;15.920;2022-07-21T07:10:04;6.93;;;3.70;;
17595;SDS011;8916;47.086;15.920;2022-07-21T07:12:36;6.32;;;3.80;;
17595;SDS011;8916;47.086;15.920;2022-07-21T07:15:25;8.73;;;3.95;;
17595;SDS011;8916;47.086;15.920;2022-07-21T07:17:55;4.47;;;3.25;;
17595;SDS011;8916;47.086;15.920;2022-07-21T07:20:24;5.00;;;3.38;;
17595;SDS011;8916;47.086;15.920;2022-07-21T07:22:53;8.93;;;3.05;;
17595;SDS011;8916;47.086;15.920;2022-07-21T07:25:23;5.82;;;3.38;;
17595;SDS011;8916;47.086;15.920;2022-07-21T07:27:59;5.75;;;3.08;;
17595;SDS011;8916;47.086;15.920;2022-07-21T07:30:29;6.90;;;3.10;;
17595;SDS011;8916;47.086;15.920;2022-07-21T07:32:58;7.03;;;3.17;;
17595;SDS011;8916;47.086;15.920;2022-07-21T07:35:27;5.60;;;3.00;;
17595;SDS011;8916;47.086;15.920;2022-07-21T07:37:56;9.70;;;3.22;;
17595;SDS011;8916;47.086;15.920;2022-07-21T07:40:26;5.97;;;3.33;;
17595;SDS011;8916;47.086;15.920;2022-07-21T07:42:55;9.60;;;3.40;;
17595;SDS011;8916;47.086;15.920;2022-07-21T07:45:33;6.05;;;2.78;;
17595;SDS011;8916;47.086;15.920;2022-07-21T07:48:03;6.05;;;3.13;;
17595;SDS011;8916;47.086;15.920;2022-07-21T07:50:33;4.45;;;2.90;;
17595;SDS011;8916;47.086;15.920;2022-07-21T07:53:02;5.30;;;2.90;;
17595;SDS011;8916;47.086;15.920;2022-07-21T07:55:32;7.65;;;3.30;;
17595;SDS011;8916;47.086;15.920;2022-07-21T07:58:01;6.95;;;3.55;;
17595;SDS011;8916;47.086;15.920;2022-07-21T08:00:30;6.15;;;3.65;;
17595;SDS011;8916;47.086;15.920;2022-07-21T08:03:20;8.75;;;3.22;;
17595;SDS011;8916;47.086;15.920;2022-07-21T08:05:50;4.63;;;2.95;;
17595;SDS011;8916;47.086;15.920;2022-07-21T08:08:20;9.60;;;3.60;;
17595;SDS011;8916;47.086;15.920;2022-07-21T08:10:50;7.72;;;3.50;;
17595;SDS011;8916;47.086;15.920;2022-07-21T08:13:20;5.15;;;3.50;;
17595;SDS011;8916;47.086;15.920;2022-07-21T08:15:51;7.85;;;3.10;;
17595;SDS011;8916;47.086;15.920;2022-07-21T08:18:21;6.95;;;3.50;;
17595;SDS011;8916;47.086;15.920;2022-07-21T08:20:50;4.47;;;3.05;;
17595;SDS011;8916;47.086;15.920;2022-07-21T08:23:19;4.20;;;3.28;;
17595;SDS011;8916;47.086;15.920;2022-07-21T08:25:48;6.30;;;3.03;;
17595;SDS011;8916;47.086;15.920;2022-07-21T08:28:18;5.60;;;3.03;;
17595;SDS011;8916;47.086;15.920;2022-07-21T08:30:47;6.40;;;3.05;;
17595;SDS011;8916;47.086;15.920;2022-07-21T08:33:18;6.97;;;2.97;;
17595;SDS011;8916;47.086;15.920;2022-07-21T08:35:47;6.13;;;2.90;;
17595;SDS011;8916;47.086;15.920;2022-07-21T08:38:16;10.80;;;3.25;;
17595;SDS011;8916;47.086;15.920;2022-07-21T08:40:47;8.68;;;3.15;;
17595;SDS011;8916;47.086;15.920;2022-07-21T08:43:16;8.25;;;2.60;;
17595;SDS011;8916;47.086;15.920;2022-07-21T08:45:46;4.75;;;2.65;;
17595;SDS011;8916;47.086;15.920;2022-07-21T08:48:15;5.15;;;2.85;;
17595;SDS011;8916;47.086;15.920;2022-07-21T08:50:52;10.27;;;3.07;;
17595;SDS011;8916;47.086;15.920;2022-07-21T08:53:22;8.65;;;2.92;;
17595;SDS011;8916;47.086;15.920;2022-07-21T08:55:51;3.63;;;2.67;;
17595;SDS011;8916;47.086;15.920;2022-07-21T08:58:21;6.78;;;2.63;;
17595;SDS011;8916;47.086;15.920;2022-07-21T09:00:50;7.82;;;2.78;;
17595;SDS011;8916;47.086;15.920;2022-07-21T09:03:23;5.30;;;2.47;;
17595;SDS011;8916;47.086;15.920;2022-07-21T09:05:59;5.45;;;2.80;;
17595;SDS011;8916;47.086;15.920;2022-07-21T09:08:34;6.75;;;2.63;;
17595;SDS011;8916;47.086;15.920;2022-07-21T09:11:13;7.13;;;2.53;;
17595;SDS011;8916;47.086;15.920;2022-07-21T09:13:49;4.47;;;2.20;;
17595;SDS011;8916;47.086;15.920;2022-07-21T09:16:35;9.18;;;3.17;;
17595;SDS011;8916;47.086;15.920;2022-07-21T09:19:07;6.57;;;2.60;;
17595;SDS011;8916;47.086;15.920;2022-07-21T09:21:46;5.72;;;2.83;;
17595;SDS011;8916;47.086;15.920;2022-07-21T09:24:18;10.68;;;2.90;;
17595;SDS011;8916;47.086;15.920;2022-07-21T09:29:43;5.57;;;2.80;;
17595;SDS011;8916;47.086;15.920;2022-07-21T09:32:15;5.50;;;2.20;;
17595;SDS011;8916;47.086;15.920;2022-07-21T09:34:49;5.13;;;2.47;;
17595;SDS011;8916;47.086;15.920;2022-07-21T09:37:21;3.17;;;2.40;;
17595;SDS011;8916;47.086;15.920;2022-07-21T09:39:52;3.67;;;2.40;;
17595;SDS011;8916;47.086;15.920;2022-07-21T09:42:24;5.63;;;2.30;;
17595;SDS011;8916;47.086;15.920;2022-07-21T09:44:57;8.15;;;2.63;;
17595;SDS011;8916;47.086;15.920;2022-07-21T09:47:29;7.13;;;2.10;;
17595;SDS011;8916;47.086;15.920;2022-07-21T09:50:01;3.75;;;1.85;;
17595;SDS011;8916;47.086;15.920;2022-07-21T09:52:52;4.32;;;2.40;;
17595;SDS011;8916;47.086;15.920;2022-07-21T09:55:23;5.97;;;2.42;;
17595;SDS011;8916;47.086;15.920;2022-07-21T09:57:52;5.00;;;2.33;;
17595;SDS011;8916;47.086;15.920;2022-07-21T10:00:25;4.95;;;2.40;;
17595;SDS011;8916;47.086;15.920;2022-07-21T10:02:55;4.57;;;2.60;;
17595;SDS011;8916;47.086;15.920;2022-07-21T10:05:26;5.53;;;2.60;;
17595;SDS011;8916;47.086;15.920;2022-07-21T10:07:59;4.32;;;2.47;;
17595;SDS011;8916;47.086;15.920;2022-07-21T10:10:34;3.70;;;2.25;;
17595;SDS011;8916;47.086;15.920;2022-07-21T10:13:23;5.82;;;2.80;;
17595;SDS011;8916;47.086;15.920;2022-07-21T10:15:53;6.65;;;2.70;;
17595;SDS011;8916;47.086;15.920;2022-07-21T10:18:22;10.93;;;3.35;;
17595;SDS011;8916;47.086;15.920;2022-07-21T10:20:57;5.93;;;2.40;;
17595;SDS011;8916;47.086;15.920;2022-07-21T10:23:37;7.15;;;2.55;;
17595;SDS011;8916;47.086;15.920;2022-07-21T10:26:10;7.63;;;2.70;;
17595;SDS011;8916;47.086;15.920;2022-07-21T10:28:40;7.47;;;2.65;;
17595;SDS011;8916;47.086;15.920;2022-07-21T10:31:13;5.95;;;2.50;;
17595;SDS011;8916;47.086;15.920;2022-07-21T10:33:52;3.53;;;2.50;;
17595;SDS011;8916;47.086;15.920;2022-07-21T10:36:39;6.85;;;2.55;;
17595;SDS011;8916;47.086;15.920;2022-07-21T10:39:17;8.93;;;2.97;;
17595;SDS011;8916;47.086;15.920;2022-07-21T10:41:50;9.18;;;2.70;;
17595;SDS011;8916;47.086;15.920;2022-07-21T10:47:15;6.22;;;2.55;;
17595;SDS011;8916;47.086;15.920;2022-07-21T10:49:51;3.33;;;2.40;;
17595;SDS011;8916;47.086;15.920;2022-07-21T10:58:15;6.78;;;2.45;;
17595;SDS011;8916;47.086;15.920;2022-07-21T11:00:52;6.68;;;2.47;;
17595;SDS011;8916;47.086;15.920;2022-07-21T11:03:24;9.63;;;2.33;;
17595;SDS011;8916;47.086;15.920;2022-07-21T11:06:12;5.78;;;2.50;;
17595;SDS011;8916;47.086;15.920;2022-07-21T11:09:06;6.97;;;2.70;;
17595;SDS011;8916;47.086;15.920;2022-07-21T11:11:55;4.43;;;2.55;;
17595;SDS011;8916;47.086;15.920;2022-07-21T11:14:37;3.97;;;2.28;;
17595;SDS011;8916;47.086;15.920;2022-07-21T11:17:08;7.57;;;3.38;;
17595;SDS011;8916;47.086;15.920;2022-07-21T11:19:40;7.25;;;3.42;;
17595;SDS011;8916;47.086;15.920;2022-07-21T11:22:16;6.35;;;2.60;;
17595;SDS011;8916;47.086;15.920;2022-07-21T11:24:49;9.13;;;3.85;;
17595;SDS011;8916;47.086;15.920;2022-07-21T11:27:28;7.35;;;2.92;;
17595;SDS011;8916;47.086;15.920;2022-07-21T11:30:00;5.07;;;2.92;;
17595;SDS011;8916;47.086;15.920;2022-07-21T11:32:32;4.47;;;2.30;;
17595;SDS011;8916;47.086;15.920;2022-07-21T11:35:02;5.93;;;2.38;;
17595;SDS011;8916;47.086;15.920;2022-07-21T11:37:34;4.63;;;2.40;;
17595;SDS011;8916;47.086;15.920;2022-07-21T11:40:08;4.55;;;2.40;;
17595;SDS011;8916;47.086;15.920;2022-07-21T11:42:40;3.80;;;2.20;;
17595;SDS011;8916;47.086;15.920;2022-07-21T11:45:11;6.50;;;2.55;;
17595;SDS011;8916;47.086;15.920;2022-07-21T11:47:42;7.10;;;2.30;;
17595;SDS011;8916;47.086;15.920;2022-07-21T11:50:18;7.93;;;2.50;;
17595;SDS011;8916;47.086;15.920;2022-07-21T11:52:47;5.95;;;2.33;;
17595;SDS011;8916;47.086;15.920;2022-07-21T11:55:19;7.38;;;2.50;;
17595;SDS011;8916;47.086;15.920;2022-07-21T11:57:48;4.88;;;2.30;;
17595;SDS011;8916;47.086;15.920;2022-07-21T12:00:17;6.20;;;2.15;;
17595;SDS011;8916;47.086;15.920;2022-07-21T12:02:48;7.68;;;2.47;;
17595;SDS011;8916;47.086;15.920;2022-07-21T12:05:18;6.45;;;2.05;;
17595;SDS011;8916;47.086;15.920;2022-07-21T12:07:51;6.45;;;2.50;;
17595;SDS011;8916;47.086;15.920;2022-07-21T12:10:24;6.70;;;2.83;;
17595;SDS011;8916;47.086;15.920;2022-07-21T12:12:57;5.45;;;2.05;;
17595;SDS011;8916;47.086;15.920;2022-07-21T12:15:29;6.88;;;2.30;;
17595;SDS011;8916;47.086;15.920;2022-07-21T12:18:02;3.60;;;2.10;;
17595;SDS011;8916;47.086;15.920;2022-07-21T12:20:34;2.50;;;2.25;;
17595;SDS011;8916;47.086;15.920;2022-07-21T12:23:17;3.38;;;2.20;;
17595;SDS011;8916;47.086;15.920;2022-07-21T12:25:50;4.05;;;2.30;;
17595;SDS011;8916;47.086;15.920;2022-07-21T12:33:41;3.85;;;2.42;;
17595;SDS011;8916;47.086;15.920;2022-07-21T12:36:33;4.05;;;2.15;;
17595;SDS011;8916;47.086;15.920;2022-07-21T12:39:12;4.72;;;2.10;;
17595;SDS011;8916;47.086;15.920;2022-07-21T12:42:02;5.25;;;2.30;;
17595;SDS011;8916;47.086;15.920;2022-07-21T12:44:32;4.30;;;2.33;;
17595;SDS011;8916;47.086;15.920;2022-07-21T12:47:17;7.18;;;2.60;;
17595;SDS011;8916;47.086;15.920;2022-07-21T12:49:55;5.15;;;2.17;;
17595;SDS011;8916;47.086;15.920;2022-07-21T12:52:40;7.07;;;2.67;;
17595;SDS011;8916;47.086;15.920;2022-07-21T12:55:09;3.95;;;2.20;;
17595;SDS011;8916;47.086;15.920;2022-07-21T12:57:40;5.35;;;2.15;;
17595;SDS011;8916;47.086;15.920;2022-07-21T13:00:09;2.72;;;1.92;;
17595;SDS011;8916;47.086;15.920;2022-07-21T13:02:45;4.18;;;2.22;;
17595;SDS011;8916;47.086;15.920;2022-07-21T13:05:15;2.70;;;2.03;;
17595;SDS011;8916;47.086;15.920;2022-07-21T13:07:44;3.22;;;2.58;;
17595;SDS011;8916;47.086;15.920;2022-07-21T13:10:14;2.88;;;2.20;;
17595;SDS011;8916;47.086;15.920;2022-07-21T13:12:45;5.68;;;2.13;;
17595;SDS011;8916;47.086;15.920;2022-07-21T13:15:14;3.55;;;2.10;;
17595;SDS011;8916;47.086;15.920;2022-07-21T13:17:45;4.03;;;2.13;;
17595;SDS011;8916;47.086;15.920;2022-07-21T13:20:14;5.35;;;2.40;;
17595;SDS011;8916;47.086;15.920;2022-07-21T13:22:43;4.30;;;2.17;;
17595;SDS011;8916;47.086;15.920;2022-07-21T13:25:13;2.38;;;2.10;;
17595;SDS011;8916;47.086;15.920;2022-07-21T13:27:42;4.47;;;2.17;;
17595;SDS011;8916;47.086;15.920;2022-07-21T13:30:16;3.47;;;2.40;;
17595;SDS011;8916;47.086;15.920;2022-07-21T13:32:46;2.38;;;2.10;;
17595;SDS011;8916;47.086;15.920;2022-07-21T13:35:15;5.47;;;2.33;;
17595;SDS011;8916;47.086;15.920;2022-07-21T13:37:52;2.67;;;2.20;;
17595;SDS011;8916;47.086;15.920;2022-07-21T13:40:21;2.90;;;2.58;;
17595;SDS011;8916;47.086;15.920;2022-07-21T13:43:11;5.68;;;2.30;;
17595;SDS011;8916;47.086;15.920;2022-07-21T13:46:03;5.90;;;2.20;;
17595;SDS011;8916;47.086;15.920;2022-07-21T13:48:33;2.80;;;2.10;;
17595;SDS011;8916;47.086;15.920;2022-07-21T13:51:10;3.08;;;2.40;;
17595;SDS011;8916;47.086;15.920;2022-07-21T13:53:40;5.70;;;2.13;;
17595;SDS011;8916;47.086;15.920;2022-07-21T13:56:11;5.32;;;2.20;;
17595;SDS011;8916;47.086;15.920;2022-07-21T13:58:40;3.42;;;2.30;;
17595;SDS011;8916;47.086;15.920;2022-07-21T14:01:11;5.50;;;2.45;;
17595;SDS011;8916;47.086;15.920;2022-07-21T14:03:43;2.10;;;1.90;;
17595;SDS011;8916;47.086;15.920;2022-07-21T14:06:13;2.70;;;2.50;;
17595;SDS011;8916;47.086;15.920;2022-07-21T14:08:43;3.20;;;2.33;;
17595;SDS011;8916;47.086;15.920;2022-07-21T14:11:12;3.88;;;2.50;;
17595;SDS011;8916;47.086;15.920;2022-07-21T14:13:42;2.70;;;2.20;;
17595;SDS011;8916;47.086;15.920;2022-07-21T14:16:13;3.33;;;2.00;;
17595;SDS011;8916;47.086;15.920;2022-07-21T14:18:42;2.90;;;2.20;;
17595;SDS011;8916;47.086;15.920;2022-07-21T14:21:11;3.83;;;2.42;;
17595;SDS011;8916;47.086;15.920;2022-07-21T14:23:40;8.70;;;2.78;;
17595;SDS011;8916;47.086;15.920;2022-07-21T14:26:10;5.30;;;2.50;;
17595;SDS011;8916;47.086;15.920;2022-07-21T14:28:39;2.78;;;2.35;;
17595;SDS011;8916;47.086;15.920;2022-07-21T14:31:08;3.55;;;2.42;;
17595;SDS011;8916;47.086;15.920;2022-07-21T14:33:39;4.32;;;2.35;;
17595;SDS011;8916;47.086;15.920;2022-07-21T14:36:08;2.70;;;2.30;;
17595;SDS011;8916;47.086;15.920;2022-07-21T14:38:37;3.00;;;2.50;;
17595;SDS011;8916;47.086;15.920;2022-07-21T14:41:06;4.30;;;2.30;;
17595;SDS011;8916;47.086;15.920;2022-07-21T14:43:36;4.30;;;2.20;;
17595;SDS011;8916;47.086;15.920;2022-07-21T14:46:05;5.78;;;2.20;;
17595;SDS011;8916;47.086;15.920;2022-07-21T14:48:34;4.45;;;2.05;;
17595;SDS011;8916;47.086;15.920;2022-07-21T14:51:05;5.40;;;2.53;;
17595;SDS011;8916;47.086;15.920;2022-07-21T14:53:34;4.60;;;2.42;;
17595;SDS011;8916;47.086;15.920;2022-07-21T14:56:03;5.95;;;2.40;;
17595;SDS011;8916;47.086;15.920;2022-07-21T14:58:32;4.53;;;2.53;;
17595;SDS011;8916;47.086;15.920;2022-07-21T15:01:02;4.15;;;2.60;;
17595;SDS011;8916;47.086;15.920;2022-07-21T15:03:31;4.72;;;2.40;;
17595;SDS011;8916;47.086;15.920;2022-07-21T15:06:00;3.15;;;2.53;;
17595;SDS011;8916;47.086;15.920;2022-07-21T15:08:31;5.25;;;2.55;;
17595;SDS011;8916;47.086;15.920;2022-07-21T15:11:00;14.68;;;2.90;;
17595;SDS011;8916;47.086;15.920;2022-07-21T15:13:29;6.70;;;2.63;;
17595;SDS011;8916;47.086;15.920;2022-07-21T15:15:58;13.15;;;2.92;;
17595;SDS011;8916;47.086;15.920;2022-07-21T15:18:28;4.05;;;2.55;;
17595;SDS011;8916;47.086;15.920;2022-07-21T15:20:57;5.22;;;2.80;;
17595;SDS011;8916;47.086;15.920;2022-07-21T15:23:26;6.05;;;2.55;;
17595;SDS011;8916;47.086;15.920;2022-07-21T15:25:56;5.85;;;2.40;;
17595;SDS011;8916;47.086;15.920;2022-07-21T15:28:25;4.80;;;2.80;;